sensor_id;sensor_type;location;lat;lon;timestamp;temperature;humidity
2300;DHT22;1158;48.750;9.078;2023-07-28T00:00:43;14.10;99.90
2300;DHT22;1158;48.750;9.078;2023-07-28T00:03:10;14.00;99.90
2300;DHT22;1158;48.750;9.078;2023-07-28T00:05:37;14.00;99.90
2300;DHT22;1158;48.750;9.078;2023-07-28T00:08:04;14.10;99.90
2300;DHT22;1158;48.750;9.078;2023-07-28T00:10:31;14.00;99.90
2300;DHT22;1158;48.750;9.078;2023-07-28T00:12:58;14.00;99.90
2300;DHT22;1158;48.750;9.078;2023-07-28T00:15:25;14.00;99.90
2300;DHT22;1158;48.750;9.078;2023-07-28T00:17:53;13.90;99.90
2300;DHT22;1158;48.750;9.078;2023-07-28T00:20:19;13.90;99.90
2300;DHT22;1158;48.750;9.078;2023-07-28T00:22:46;13.80;99.90
2300;DHT22;1158;48.750;9.078;2023-07-28T00:25:13;13.80;99.90
2300;DHT22;1158;48.750;9.078;2023-07-28T00:27:40;13.80;99.90
2300;DHT22;1158;48.750;9.078;2023-07-28T00:30:07;13.70;99.90
2300;DHT22;1158;48.750;9.078;2023-07-28T00:32:34;13.70;99.90
2300;DHT22;1158;48.750;9.078;2023-07-28T00:35:02;13.60;99.90
2300;DHT22;1158;48.750;9.078;2023-07-28T00:37:29;13.60;99.90
2300;DHT22;1158;48.750;9.078;2023-07-28T00:39:56;13.50;99.90
2300;DHT22;1158;48.750;9.078;2023-07-28T00:42:23;13.50;99.90
2300;DHT22;1158;48.750;9.078;2023-07-28T00:44:49;13.40;99.90
2300;DHT22;1158;48.750;9.078;2023-07-28T00:47:16;13.40;99.90
2300;DHT22;1158;48.750;9.078;2023-07-28T00:49:43;13.40;99.90
2300;DHT22;1158;48.750;9.078;2023-07-28T00:52:11;13.30;99.90
2300;DHT22;1158;48.750;9.078;2023-07-28T00:54:38;13.30;99.90
2300;DHT22;1158;48.750;9.078;2023-07-28T00:57:05;13.40;99.90
2300;DHT22;1158;48.750;9.078;2023-07-28T00:59:32;13.40;99.90
2300;DHT22;1158;48.750;9.078;2023-07-28T01:01:59;13.30;99.90
2300;DHT22;1158;48.750;9.078;2023-07-28T01:04:26;13.30;99.90
2300;DHT22;1158;48.750;9.078;2023-07-28T01:06:57;13.30;99.90
2300;DHT22;1158;48.750;9.078;2023-07-28T01:09:34;13.30;99.90
2300;DHT22;1158;48.750;9.078;2023-07-28T01:12:07;13.30;99.90
2300;DHT22;1158;48.750;9.078;2023-07-28T01:14:34;13.40;99.90
2300;DHT22;1158;48.750;9.078;2023-07-28T01:17:01;13.30;99.90
2300;DHT22;1158;48.750;9.078;2023-07-28T01:19:27;13.40;99.90
2300;DHT22;1158;48.750;9.078;2023-07-28T01:22:03;13.40;99.90
2300;DHT22;1158;48.750;9.078;2023-07-28T01:24:40;13.40;99.90
2300;DHT22;1158;48.750;9.078;2023-07-28T01:27:10;13.40;99.90
2300;DHT22;1158;48.750;9.078;2023-07-28T01:29:37;13.40;99.90
2300;DHT22;1158;48.750;9.078;2023-07-28T01:32:05;13.40;99.90
2300;DHT22;1158;48.750;9.078;2023-07-28T01:34:31;13.40;99.90
2300;DHT22;1158;48.750;9.078;2023-07-28T01:36:58;13.40;99.90
2300;DHT22;1158;48.750;9.078;2023-07-28T01:39:25;13.40;99.90
2300;DHT22;1158;48.750;9.078;2023-07-28T01:41:52;13.50;99.90
2300;DHT22;1158;48.750;9.078;2023-07-28T01:44:20;13.50;99.90
2300;DHT22;1158;48.750;9.078;2023-07-28T01:46:46;13.50;99.90
2300;DHT22;1158;48.750;9.078;2023-07-28T01:49:13;13.40;99.90
2300;DHT22;1158;48.750;9.078;2023-07-28T01:51:40;13.40;99.90
2300;DHT22;1158;48.750;9.078;2023-07-28T01:54:06;13.40;99.90
2300;DHT22;1158;48.750;9.078;2023-07-28T01:56:33;13.50;99.90
2300;DHT22;1158;48.750;9.078;2023-07-28T01:59:00;13.50;99.90
2300;DHT22;1158;48.750;9.078;2023-07-28T02:01:29;13.60;99.90
2300;DHT22;1158;48.750;9.078;2023-07-28T02:03:56;13.60;99.90
2300;DHT22;1158;48.750;9.078;2023-07-28T02:06:22;13.60;99.90
2300;DHT22;1158;48.750;9.078;2023-07-28T02:08:49;13.70;99.90
2300;DHT22;1158;48.750;9.078;2023-07-28T02:11:16;13.80;99.90
2300;DHT22;1158;48.750;9.078;2023-07-28T02:13:43;13.70;99.90
2300;DHT22;1158;48.750;9.078;2023-07-28T02:16:09;13.70;99.90
2300;DHT22;1158;48.750;9.078;2023-07-28T02:18:37;13.70;99.90
2300;DHT22;1158;48.750;9.078;2023-07-28T02:21:04;13.70;99.90
2300;DHT22;1158;48.750;9.078;2023-07-28T02:23:31;13.70;99.90
2300;DHT22;1158;48.750;9.078;2023-07-28T02:25:58;13.80;99.90
2300;DHT22;1158;48.750;9.078;2023-07-28T02:28:24;13.80;99.90
2300;DHT22;1158;48.750;9.078;2023-07-28T02:30:51;13.80;99.90
2300;DHT22;1158;48.750;9.078;2023-07-28T02:33:18;13.80;99.90
2300;DHT22;1158;48.750;9.078;2023-07-28T02:35:46;13.90;99.90
2300;DHT22;1158;48.750;9.078;2023-07-28T02:38:13;13.90;99.90
2300;DHT22;1158;48.750;9.078;2023-07-28T02:40:39;13.90;99.90
2300;DHT22;1158;48.750;9.078;2023-07-28T02:43:06;14.00;99.90
2300;DHT22;1158;48.750;9.078;2023-07-28T02:45:33;14.10;99.90
2300;DHT22;1158;48.750;9.078;2023-07-28T02:47:59;14.20;99.90
2300;DHT22;1158;48.750;9.078;2023-07-28T02:50:26;14.30;99.90
2300;DHT22;1158;48.750;9.078;2023-07-28T02:52:54;14.30;99.90
2300;DHT22;1158;48.750;9.078;2023-07-28T02:55:21;14.30;99.90
2300;DHT22;1158;48.750;9.078;2023-07-28T02:57:48;14.40;99.90
2300;DHT22;1158;48.750;9.078;2023-07-28T03:00:15;14.50;99.90
2300;DHT22;1158;48.750;9.078;2023-07-28T03:02:41;14.50;99.90
2300;DHT22;1158;48.750;9.078;2023-07-28T03:05:08;14.70;99.90
2300;DHT22;1158;48.750;9.078;2023-07-28T03:07:35;14.70;99.90
2300;DHT22;1158;48.750;9.078;2023-07-28T03:10:03;14.80;99.90
2300;DHT22;1158;48.750;9.078;2023-07-28T03:12:30;14.80;99.90
2300;DHT22;1158;48.750;9.078;2023-07-28T03:14:57;14.90;99.90
2300;DHT22;1158;48.750;9.078;2023-07-28T03:17:23;14.90;99.90
2300;DHT22;1158;48.750;9.078;2023-07-28T03:19:51;15.00;99.90
2300;DHT22;1158;48.750;9.078;2023-07-28T03:22:18;15.10;99.90
2300;DHT22;1158;48.750;9.078;2023-07-28T03:24:44;15.10;99.90
2300;DHT22;1158;48.750;9.078;2023-07-28T03:27:13;15.10;99.90
2300;DHT22;1158;48.750;9.078;2023-07-28T03:29:40;15.20;99.90
2300;DHT22;1158;48.750;9.078;2023-07-28T03:32:06;15.30;99.90
2300;DHT22;1158;48.750;9.078;2023-07-28T03:34:33;15.30;99.90
2300;DHT22;1158;48.750;9.078;2023-07-28T03:37:00;15.30;99.90
2300;DHT22;1158;48.750;9.078;2023-07-28T03:39:27;15.30;99.90
2300;DHT22;1158;48.750;9.078;2023-07-28T03:41:53;15.40;99.90
2300;DHT22;1158;48.750;9.078;2023-07-28T03:44:21;15.40;99.90
2300;DHT22;1158;48.750;9.078;2023-07-28T03:46:48;15.40;99.90
2300;DHT22;1158;48.750;9.078;2023-07-28T03:49:15;15.40;99.90
2300;DHT22;1158;48.750;9.078;2023-07-28T03:51:42;15.40;99.90
2300;DHT22;1158;48.750;9.078;2023-07-28T03:54:08;15.40;99.90
2300;DHT22;1158;48.750;9.078;2023-07-28T03:56:35;15.40;99.90
2300;DHT22;1158;48.750;9.078;2023-07-28T03:59:02;15.40;99.90
2300;DHT22;1158;48.750;9.078;2023-07-28T04:01:30;15.40;99.90
2300;DHT22;1158;48.750;9.078;2023-07-28T04:03:57;15.30;99.90
2300;DHT22;1158;48.750;9.078;2023-07-28T04:06:39;15.30;99.90
2300;DHT22;1158;48.750;9.078;2023-07-28T04:09:06;15.40;99.90
2300;DHT22;1158;48.750;9.078;2023-07-28T04:11:33;15.40;99.90
2300;DHT22;1158;48.750;9.078;2023-07-28T04:14:00;15.40;99.90
2300;DHT22;1158;48.750;9.078;2023-07-28T04:16:26;15.40;99.90
2300;DHT22;1158;48.750;9.078;2023-07-28T04:18:54;15.40;99.90
2300;DHT22;1158;48.750;9.078;2023-07-28T04:21:21;15.40;99.90
2300;DHT22;1158;48.750;9.078;2023-07-28T04:23:48;15.30;99.90
2300;DHT22;1158;48.750;9.078;2023-07-28T04:26:15;15.30;99.90
2300;DHT22;1158;48.750;9.078;2023-07-28T04:28:42;15.30;99.90
2300;DHT22;1158;48.750;9.078;2023-07-28T04:31:09;15.30;99.90
2300;DHT22;1158;48.750;9.078;2023-07-28T04:33:35;15.30;99.90
2300;DHT22;1158;48.750;9.078;2023-07-28T04:36:04;15.50;99.90
2300;DHT22;1158;48.750;9.078;2023-07-28T04:38:31;15.60;99.90
2300;DHT22;1158;48.750;9.078;2023-07-28T04:40:57;15.60;99.90
2300;DHT22;1158;48.750;9.078;2023-07-28T04:43:24;15.50;99.90
2300;DHT22;1158;48.750;9.078;2023-07-28T04:45:51;15.50;99.90
2300;DHT22;1158;48.750;9.078;2023-07-28T04:48:17;15.40;99.90
2300;DHT22;1158;48.750;9.078;2023-07-28T04:50:44;15.40;99.90
2300;DHT22;1158;48.750;9.078;2023-07-28T04:53:13;15.30;99.90
2300;DHT22;1158;48.750;9.078;2023-07-28T04:55:39;15.30;99.90
2300;DHT22;1158;48.750;9.078;2023-07-28T04:58:06;15.30;99.90
2300;DHT22;1158;48.750;9.078;2023-07-28T05:00:33;15.40;99.90
2300;DHT22;1158;48.750;9.078;2023-07-28T05:02:59;15.50;99.90
2300;DHT22;1158;48.750;9.078;2023-07-28T05:05:26;15.60;99.90
2300;DHT22;1158;48.750;9.078;2023-07-28T05:07:55;15.50;99.90
2300;DHT22;1158;48.750;9.078;2023-07-28T05:10:23;15.50;99.90
2300;DHT22;1158;48.750;9.078;2023-07-28T05:12:50;15.40;99.90
2300;DHT22;1158;48.750;9.078;2023-07-28T05:15:17;15.30;99.90
2300;DHT22;1158;48.750;9.078;2023-07-28T05:17:44;15.30;99.90
2300;DHT22;1158;48.750;9.078;2023-07-28T05:20:11;15.30;99.90
2300;DHT22;1158;48.750;9.078;2023-07-28T05:22:38;15.30;99.90
2300;DHT22;1158;48.750;9.078;2023-07-28T05:25:05;15.30;99.90
2300;DHT22;1158;48.750;9.078;2023-07-28T05:27:34;15.40;99.90
2300;DHT22;1158;48.750;9.078;2023-07-28T05:30:00;15.40;99.90
2300;DHT22;1158;48.750;9.078;2023-07-28T05:32:27;15.40;99.90
2300;DHT22;1158;48.750;9.078;2023-07-28T05:34:54;15.50;99.90
2300;DHT22;1158;48.750;9.078;2023-07-28T05:37:21;15.50;99.90
2300;DHT22;1158;48.750;9.078;2023-07-28T05:39:48;15.50;99.90
2300;DHT22;1158;48.750;9.078;2023-07-28T05:42:15;15.50;99.90
2300;DHT22;1158;48.750;9.078;2023-07-28T05:44:43;15.50;99.90
2300;DHT22;1158;48.750;9.078;2023-07-28T05:47:09;15.50;99.90
2300;DHT22;1158;48.750;9.078;2023-07-28T05:49:37;15.50;99.90
2300;DHT22;1158;48.750;9.078;2023-07-28T05:52:04;15.50;99.90
2300;DHT22;1158;48.750;9.078;2023-07-28T05:54:31;15.50;99.90
2300;DHT22;1158;48.750;9.078;2023-07-28T05:56:58;15.50;99.90
2300;DHT22;1158;48.750;9.078;2023-07-28T05:59:25;15.50;99.90
2300;DHT22;1158;48.750;9.078;2023-07-28T06:01:53;15.50;99.90
2300;DHT22;1158;48.750;9.078;2023-07-28T06:04:19;15.60;99.90
2300;DHT22;1158;48.750;9.078;2023-07-28T06:06:47;15.60;99.90
2300;DHT22;1158;48.750;9.078;2023-07-28T06:09:13;15.70;99.90
2300;DHT22;1158;48.750;9.078;2023-07-28T06:11:40;15.70;99.90
2300;DHT22;1158;48.750;9.078;2023-07-28T06:14:07;15.70;99.90
2300;DHT22;1158;48.750;9.078;2023-07-28T06:16:34;15.70;99.90
2300;DHT22;1158;48.750;9.078;2023-07-28T06:19:02;15.80;99.90
2300;DHT22;1158;48.750;9.078;2023-07-28T06:21:30;15.80;99.90
2300;DHT22;1158;48.750;9.078;2023-07-28T06:23:57;15.90;99.90
2300;DHT22;1158;48.750;9.078;2023-07-28T06:26:23;15.90;99.90
2300;DHT22;1158;48.750;9.078;2023-07-28T06:28:50;16.00;99.90
2300;DHT22;1158;48.750;9.078;2023-07-28T06:31:17;15.90;99.90
2300;DHT22;1158;48.750;9.078;2023-07-28T06:33:44;16.00;99.90
2300;DHT22;1158;48.750;9.078;2023-07-28T06:36:12;16.10;99.90
2300;DHT22;1158;48.750;9.078;2023-07-28T06:38:38;16.20;99.90
2300;DHT22;1158;48.750;9.078;2023-07-28T06:41:05;16.30;99.90
2300;DHT22;1158;48.750;9.078;2023-07-28T06:43:32;16.40;99.90
2300;DHT22;1158;48.750;9.078;2023-07-28T06:45:59;16.60;99.90
2300;DHT22;1158;48.750;9.078;2023-07-28T06:48:25;16.70;99.90
2300;DHT22;1158;48.750;9.078;2023-07-28T06:50:52;16.70;99.90
2300;DHT22;1158;48.750;9.078;2023-07-28T06:53:20;16.70;99.90
2300;DHT22;1158;48.750;9.078;2023-07-28T06:55:47;16.80;99.90
2300;DHT22;1158;48.750;9.078;2023-07-28T06:58:14;16.90;99.90
2300;DHT22;1158;48.750;9.078;2023-07-28T07:00:40;16.90;99.90
2300;DHT22;1158;48.750;9.078;2023-07-28T07:03:07;17.00;99.90
2300;DHT22;1158;48.750;9.078;2023-07-28T07:05:34;17.10;99.90
2300;DHT22;1158;48.750;9.078;2023-07-28T07:08:01;17.20;99.90
2300;DHT22;1158;48.750;9.078;2023-07-28T07:10:29;17.30;99.90
2300;DHT22;1158;48.750;9.078;2023-07-28T07:12:56;17.30;99.90
2300;DHT22;1158;48.750;9.078;2023-07-28T07:15:23;17.40;99.90
2300;DHT22;1158;48.750;9.078;2023-07-28T07:17:49;17.50;99.90
2300;DHT22;1158;48.750;9.078;2023-07-28T07:20:16;17.40;99.90
2300;DHT22;1158;48.750;9.078;2023-07-28T07:22:43;17.40;99.90
2300;DHT22;1158;48.750;9.078;2023-07-28T07:25:10;17.50;99.90
2300;DHT22;1158;48.750;9.078;2023-07-28T07:27:38;17.60;99.90
2300;DHT22;1158;48.750;9.078;2023-07-28T07:30:06;17.80;99.90
2300;DHT22;1158;48.750;9.078;2023-07-28T07:32:33;18.00;99.90
2300;DHT22;1158;48.750;9.078;2023-07-28T07:35:00;18.30;99.90
2300;DHT22;1158;48.750;9.078;2023-07-28T07:37:27;18.50;99.90
2300;DHT22;1158;48.750;9.078;2023-07-28T07:39:53;18.90;99.90
2300;DHT22;1158;48.750;9.078;2023-07-28T07:42:20;19.30;99.90
2300;DHT22;1158;48.750;9.078;2023-07-28T07:44:48;19.60;99.90
2300;DHT22;1158;48.750;9.078;2023-07-28T07:47:15;19.80;99.90
2300;DHT22;1158;48.750;9.078;2023-07-28T07:49:42;19.80;99.90
2300;DHT22;1158;48.750;9.078;2023-07-28T07:52:10;19.80;99.90
2300;DHT22;1158;48.750;9.078;2023-07-28T07:54:37;19.90;99.90
2300;DHT22;1158;48.750;9.078;2023-07-28T07:57:05;20.10;99.90
2300;DHT22;1158;48.750;9.078;2023-07-28T07:59:32;20.20;99.90
2300;DHT22;1158;48.750;9.078;2023-07-28T08:02:01;20.20;99.90
2300;DHT22;1158;48.750;9.078;2023-07-28T08:06:56;20.40;99.90
2300;DHT22;1158;48.750;9.078;2023-07-28T08:09:22;20.40;99.90
2300;DHT22;1158;48.750;9.078;2023-07-28T08:11:49;20.30;99.90
2300;DHT22;1158;48.750;9.078;2023-07-28T08:14:16;20.30;99.90
2300;DHT22;1158;48.750;9.078;2023-07-28T08:16:43;20.10;99.90
2300;DHT22;1158;48.750;9.078;2023-07-28T08:19:11;20.20;99.90
2300;DHT22;1158;48.750;9.078;2023-07-28T08:21:38;20.30;99.90
2300;DHT22;1158;48.750;9.078;2023-07-28T08:24:05;20.80;99.90
2300;DHT22;1158;48.750;9.078;2023-07-28T08:26:32;21.20;99.90
2300;DHT22;1158;48.750;9.078;2023-07-28T08:28:58;21.30;99.90
2300;DHT22;1158;48.750;9.078;2023-07-28T08:31:25;21.50;99.90
2300;DHT22;1158;48.750;9.078;2023-07-28T08:33:52;21.60;99.90
2300;DHT22;1158;48.750;9.078;2023-07-28T08:36:20;22.00;99.90
2300;DHT22;1158;48.750;9.078;2023-07-28T08:38:47;22.30;99.90
2300;DHT22;1158;48.750;9.078;2023-07-28T08:41:14;22.50;99.90
2300;DHT22;1158;48.750;9.078;2023-07-28T08:43:41;22.60;99.90
2300;DHT22;1158;48.750;9.078;2023-07-28T08:46:08;22.70;99.90
2300;DHT22;1158;48.750;9.078;2023-07-28T08:48:35;22.90;99.90
2300;DHT22;1158;48.750;9.078;2023-07-28T08:51:02;22.90;99.90
2300;DHT22;1158;48.750;9.078;2023-07-28T08:53:31;22.60;99.90
2300;DHT22;1158;48.750;9.078;2023-07-28T08:55:58;22.30;99.90
2300;DHT22;1158;48.750;9.078;2023-07-28T08:58:24;22.40;99.90
2300;DHT22;1158;48.750;9.078;2023-07-28T09:00:52;22.30;99.90
2300;DHT22;1158;48.750;9.078;2023-07-28T09:03:19;22.20;99.90
2300;DHT22;1158;48.750;9.078;2023-07-28T09:05:46;22.20;99.90
2300;DHT22;1158;48.750;9.078;2023-07-28T09:08:13;21.80;99.90
2300;DHT22;1158;48.750;9.078;2023-07-28T09:10:42;21.20;99.90
2300;DHT22;1158;48.750;9.078;2023-07-28T09:13:10;21.00;99.90
2300;DHT22;1158;48.750;9.078;2023-07-28T09:15:37;20.90;99.90
2300;DHT22;1158;48.750;9.078;2023-07-28T09:18:07;20.90;99.90
2300;DHT22;1158;48.750;9.078;2023-07-28T09:20:35;21.10;99.90
2300;DHT22;1158;48.750;9.078;2023-07-28T09:23:02;21.10;99.90
2300;DHT22;1158;48.750;9.078;2023-07-28T09:25:31;21.20;99.90
2300;DHT22;1158;48.750;9.078;2023-07-28T09:27:59;21.00;99.90
2300;DHT22;1158;48.750;9.078;2023-07-28T09:30:27;21.30;99.90
2300;DHT22;1158;48.750;9.078;2023-07-28T09:32:55;21.50;99.90
2300;DHT22;1158;48.750;9.078;2023-07-28T09:35:22;21.50;99.90
2300;DHT22;1158;48.750;9.078;2023-07-28T09:37:50;22.00;99.90
2300;DHT22;1158;48.750;9.078;2023-07-28T09:40:19;22.50;99.90
2300;DHT22;1158;48.750;9.078;2023-07-28T09:42:48;22.90;99.90
2300;DHT22;1158;48.750;9.078;2023-07-28T09:45:18;23.10;99.90
2300;DHT22;1158;48.750;9.078;2023-07-28T09:47:46;23.30;99.90
2300;DHT22;1158;48.750;9.078;2023-07-28T09:50:15;23.30;99.90
2300;DHT22;1158;48.750;9.078;2023-07-28T09:52:46;23.00;99.90
2300;DHT22;1158;48.750;9.078;2023-07-28T09:55:12;23.00;99.90
2300;DHT22;1158;48.750;9.078;2023-07-28T09:57:45;22.80;99.90
2300;DHT22;1158;48.750;9.078;2023-07-28T10:00:14;22.60;99.90
2300;DHT22;1158;48.750;9.078;2023-07-28T10:02:43;22.80;99.90
2300;DHT22;1158;48.750;9.078;2023-07-28T10:05:11;22.70;99.90
2300;DHT22;1158;48.750;9.078;2023-07-28T10:07:41;22.60;99.90
2300;DHT22;1158;48.750;9.078;2023-07-28T10:10:11;22.30;99.90
2300;DHT22;1158;48.750;9.078;2023-07-28T10:12:42;22.20;99.90
2300;DHT22;1158;48.750;9.078;2023-07-28T10:15:13;22.00;99.90
2300;DHT22;1158;48.750;9.078;2023-07-28T10:17:45;22.10;99.90
2300;DHT22;1158;48.750;9.078;2023-07-28T10:20:30;22.40;99.90
2300;DHT22;1158;48.750;9.078;2023-07-28T10:23:04;22.30;99.90
2300;DHT22;1158;48.750;9.078;2023-07-28T10:25:33;21.90;99.90
2300;DHT22;1158;48.750;9.078;2023-07-28T10:28:01;21.60;99.90
2300;DHT22;1158;48.750;9.078;2023-07-28T10:30:32;21.60;99.90
2300;DHT22;1158;48.750;9.078;2023-07-28T10:33:03;21.60;99.90
2300;DHT22;1158;48.750;9.078;2023-07-28T10:35:30;21.70;99.90
2300;DHT22;1158;48.750;9.078;2023-07-28T10:38:32;21.70;99.90
2300;DHT22;1158;48.750;9.078;2023-07-28T10:41:10;21.70;99.90
2300;DHT22;1158;48.750;9.078;2023-07-28T10:43:38;21.70;99.90
2300;DHT22;1158;48.750;9.078;2023-07-28T10:46:06;21.60;99.90
2300;DHT22;1158;48.750;9.078;2023-07-28T10:48:36;22.00;99.90
2300;DHT22;1158;48.750;9.078;2023-07-28T10:51:03;22.40;99.90
2300;DHT22;1158;48.750;9.078;2023-07-28T10:53:32;23.00;99.90
2300;DHT22;1158;48.750;9.078;2023-07-28T10:56:01;23.40;99.90
2300;DHT22;1158;48.750;9.078;2023-07-28T10:58:30;23.90;99.90
2300;DHT22;1158;48.750;9.078;2023-07-28T11:00:57;24.10;99.90
2300;DHT22;1158;48.750;9.078;2023-07-28T11:03:24;24.80;99.90
2300;DHT22;1158;48.750;9.078;2023-07-28T11:05:55;25.20;99.90
2300;DHT22;1158;48.750;9.078;2023-07-28T11:08:22;25.50;99.90
2300;DHT22;1158;48.750;9.078;2023-07-28T11:10:49;25.30;99.90
2300;DHT22;1158;48.750;9.078;2023-07-28T11:13:16;25.60;99.90
2300;DHT22;1158;48.750;9.078;2023-07-28T11:15:43;25.70;99.90
2300;DHT22;1158;48.750;9.078;2023-07-28T11:18:10;26.00;99.90
2300;DHT22;1158;48.750;9.078;2023-07-28T11:20:37;25.70;99.90
2300;DHT22;1158;48.750;9.078;2023-07-28T11:23:05;25.40;99.90
2300;DHT22;1158;48.750;9.078;2023-07-28T11:25:35;25.00;99.90
2300;DHT22;1158;48.750;9.078;2023-07-28T11:28:03;24.40;99.90
2300;DHT22;1158;48.750;9.078;2023-07-28T11:30:31;24.10;99.90
2300;DHT22;1158;48.750;9.078;2023-07-28T11:32:59;24.00;99.90
2300;DHT22;1158;48.750;9.078;2023-07-28T11:35:26;24.00;99.90
2300;DHT22;1158;48.750;9.078;2023-07-28T11:37:53;24.00;99.90
2300;DHT22;1158;48.750;9.078;2023-07-28T11:40:22;23.80;99.90
2300;DHT22;1158;48.750;9.078;2023-07-28T11:42:53;23.60;99.90
2300;DHT22;1158;48.750;9.078;2023-07-28T11:45:20;23.40;99.90
2300;DHT22;1158;48.750;9.078;2023-07-28T11:47:58;23.50;99.90
2300;DHT22;1158;48.750;9.078;2023-07-28T11:50:26;23.00;99.90
2300;DHT22;1158;48.750;9.078;2023-07-28T11:52:53;23.00;99.90
2300;DHT22;1158;48.750;9.078;2023-07-28T11:55:23;22.80;99.90
2300;DHT22;1158;48.750;9.078;2023-07-28T11:57:51;22.20;99.90
2300;DHT22;1158;48.750;9.078;2023-07-28T12:00:18;21.80;99.90
2300;DHT22;1158;48.750;9.078;2023-07-28T12:03:01;21.40;99.90
2300;DHT22;1158;48.750;9.078;2023-07-28T12:05:30;21.10;99.90
2300;DHT22;1158;48.750;9.078;2023-07-28T12:07:57;21.00;99.90
2300;DHT22;1158;48.750;9.078;2023-07-28T12:10:25;21.30;99.90
2300;DHT22;1158;48.750;9.078;2023-07-28T12:12:52;21.40;99.90
2300;DHT22;1158;48.750;9.078;2023-07-28T12:15:21;21.20;99.90
2300;DHT22;1158;48.750;9.078;2023-07-28T12:18:08;21.30;99.90
2300;DHT22;1158;48.750;9.078;2023-07-28T12:20:39;21.50;99.90
2300;DHT22;1158;48.750;9.078;2023-07-28T12:23:07;21.60;99.90
2300;DHT22;1158;48.750;9.078;2023-07-28T12:25:37;21.60;99.90
2300;DHT22;1158;48.750;9.078;2023-07-28T12:28:04;21.50;99.90
2300;DHT22;1158;48.750;9.078;2023-07-28T12:30:31;21.70;99.90
2300;DHT22;1158;48.750;9.078;2023-07-28T12:32:58;21.80;99.90
2300;DHT22;1158;48.750;9.078;2023-07-28T12:35:26;21.90;99.90
2300;DHT22;1158;48.750;9.078;2023-07-28T12:37:56;22.40;99.90
2300;DHT22;1158;48.750;9.078;2023-07-28T12:40:25;23.10;99.90
2300;DHT22;1158;48.750;9.078;2023-07-28T12:42:53;23.70;99.90
2300;DHT22;1158;48.750;9.078;2023-07-28T12:45:21;24.20;99.90
2300;DHT22;1158;48.750;9.078;2023-07-28T12:47:48;24.30;99.90
2300;DHT22;1158;48.750;9.078;2023-07-28T12:50:15;24.40;99.90
2300;DHT22;1158;48.750;9.078;2023-07-28T12:52:41;24.70;99.90
2300;DHT22;1158;48.750;9.078;2023-07-28T12:55:08;24.60;99.90
2300;DHT22;1158;48.750;9.078;2023-07-28T12:57:35;24.30;99.90
2300;DHT22;1158;48.750;9.078;2023-07-28T13:00:04;24.10;99.90
2300;DHT22;1158;48.750;9.078;2023-07-28T13:02:38;23.90;99.90
2300;DHT22;1158;48.750;9.078;2023-07-28T13:05:05;24.00;99.90
2300;DHT22;1158;48.750;9.078;2023-07-28T13:07:32;23.70;99.90
2300;DHT22;1158;48.750;9.078;2023-07-28T13:09:59;23.60;99.90
2300;DHT22;1158;48.750;9.078;2023-07-28T13:12:25;23.50;99.90
2300;DHT22;1158;48.750;9.078;2023-07-28T13:14:52;23.20;99.90
2300;DHT22;1158;48.750;9.078;2023-07-28T13:17:20;23.10;99.90
2300;DHT22;1158;48.750;9.078;2023-07-28T13:19:47;22.80;99.90
2300;DHT22;1158;48.750;9.078;2023-07-28T13:22:14;22.40;99.90
2300;DHT22;1158;48.750;9.078;2023-07-28T13:24:41;22.20;99.90
2300;DHT22;1158;48.750;9.078;2023-07-28T13:27:09;22.00;99.90
2300;DHT22;1158;48.750;9.078;2023-07-28T13:29:36;21.70;99.90
2300;DHT22;1158;48.750;9.078;2023-07-28T13:32:03;21.30;99.90
2300;DHT22;1158;48.750;9.078;2023-07-28T13:34:31;21.00;99.90
2300;DHT22;1158;48.750;9.078;2023-07-28T13:36:58;20.70;99.90
2300;DHT22;1158;48.750;9.078;2023-07-28T13:39:24;20.30;99.90
2300;DHT22;1158;48.750;9.078;2023-07-28T13:41:51;20.00;99.90
2300;DHT22;1158;48.750;9.078;2023-07-28T13:44:18;19.80;99.90
2300;DHT22;1158;48.750;9.078;2023-07-28T13:46:45;19.60;99.90
2300;DHT22;1158;48.750;9.078;2023-07-28T13:49:11;19.40;99.90
2300;DHT22;1158;48.750;9.078;2023-07-28T13:51:39;19.20;99.90
2300;DHT22;1158;48.750;9.078;2023-07-28T13:54:06;18.90;99.90
2300;DHT22;1158;48.750;9.078;2023-07-28T13:56:33;18.90;99.90
2300;DHT22;1158;48.750;9.078;2023-07-28T13:59:00;18.60;99.90
2300;DHT22;1158;48.750;9.078;2023-07-28T14:01:27;18.50;99.90
2300;DHT22;1158;48.750;9.078;2023-07-28T14:03:54;18.30;99.90
2300;DHT22;1158;48.750;9.078;2023-07-28T14:06:21;18.20;99.90
2300;DHT22;1158;48.750;9.078;2023-07-28T14:08:49;18.10;99.90
2300;DHT22;1158;48.750;9.078;2023-07-28T14:11:15;18.10;99.90
2300;DHT22;1158;48.750;9.078;2023-07-28T14:13:42;18.10;99.90
2300;DHT22;1158;48.750;9.078;2023-07-28T14:16:09;18.00;99.90
2300;DHT22;1158;48.750;9.078;2023-07-28T14:18:36;18.20;99.90
2300;DHT22;1158;48.750;9.078;2023-07-28T14:21:03;18.20;99.90
2300;DHT22;1158;48.750;9.078;2023-07-28T14:23:30;18.30;99.90
2300;DHT22;1158;48.750;9.078;2023-07-28T14:25:58;18.20;99.90
2300;DHT22;1158;48.750;9.078;2023-07-28T14:28:25;18.20;99.90
2300;DHT22;1158;48.750;9.078;2023-07-28T14:30:51;18.20;99.90
2300;DHT22;1158;48.750;9.078;2023-07-28T14:33:18;18.10;99.90
2300;DHT22;1158;48.750;9.078;2023-07-28T14:35:47;18.10;99.90
2300;DHT22;1158;48.750;9.078;2023-07-28T14:38:14;18.10;99.90
2300;DHT22;1158;48.750;9.078;2023-07-28T14:40:42;18.10;99.90
2300;DHT22;1158;48.750;9.078;2023-07-28T14:43:13;18.20;99.90
2300;DHT22;1158;48.750;9.078;2023-07-28T14:45:40;18.30;99.90
2300;DHT22;1158;48.750;9.078;2023-07-28T14:48:07;18.30;99.90
2300;DHT22;1158;48.750;9.078;2023-07-28T14:50:33;18.30;99.90
2300;DHT22;1158;48.750;9.078;2023-07-28T14:53:00;18.40;99.90
2300;DHT22;1158;48.750;9.078;2023-07-28T14:55:27;18.60;99.90
2300;DHT22;1158;48.750;9.078;2023-07-28T14:57:54;18.70;99.90
2300;DHT22;1158;48.750;9.078;2023-07-28T15:00:22;18.80;99.90
2300;DHT22;1158;48.750;9.078;2023-07-28T15:02:49;18.90;99.90
2300;DHT22;1158;48.750;9.078;2023-07-28T15:05:16;19.20;99.90
2300;DHT22;1158;48.750;9.078;2023-07-28T15:07:42;19.40;99.90
2300;DHT22;1158;48.750;9.078;2023-07-28T15:10:10;19.50;99.90
2300;DHT22;1158;48.750;9.078;2023-07-28T15:12:36;19.60;99.90
2300;DHT22;1158;48.750;9.078;2023-07-28T15:15:04;19.70;99.90
2300;DHT22;1158;48.750;9.078;2023-07-28T15:17:32;19.80;99.90
2300;DHT22;1158;48.750;9.078;2023-07-28T15:19:59;19.70;99.90
2300;DHT22;1158;48.750;9.078;2023-07-28T15:22:26;19.70;99.90
2300;DHT22;1158;48.750;9.078;2023-07-28T15:24:53;19.80;99.90
2300;DHT22;1158;48.750;9.078;2023-07-28T15:27:20;19.80;99.90
2300;DHT22;1158;48.750;9.078;2023-07-28T15:29:46;19.70;99.90
2300;DHT22;1158;48.750;9.078;2023-07-28T15:32:13;19.80;99.90
2300;DHT22;1158;48.750;9.078;2023-07-28T15:34:41;19.80;99.90
2300;DHT22;1158;48.750;9.078;2023-07-28T15:37:08;19.80;99.90
2300;DHT22;1158;48.750;9.078;2023-07-28T15:39:35;19.70;99.90
2300;DHT22;1158;48.750;9.078;2023-07-28T15:42:02;19.70;99.90
2300;DHT22;1158;48.750;9.078;2023-07-28T15:44:29;19.50;99.90
2300;DHT22;1158;48.750;9.078;2023-07-28T15:46:55;19.50;99.90
2300;DHT22;1158;48.750;9.078;2023-07-28T15:49:22;19.50;99.90
2300;DHT22;1158;48.750;9.078;2023-07-28T15:51:50;19.50;99.90
2300;DHT22;1158;48.750;9.078;2023-07-28T15:54:17;19.40;99.90
2300;DHT22;1158;48.750;9.078;2023-07-28T15:56:43;19.50;99.90
2300;DHT22;1158;48.750;9.078;2023-07-28T15:59:11;19.50;99.90
2300;DHT22;1158;48.750;9.078;2023-07-28T16:01:37;19.50;99.90
2300;DHT22;1158;48.750;9.078;2023-07-28T16:04:04;19.50;99.90
2300;DHT22;1158;48.750;9.078;2023-07-28T16:06:31;19.40;99.90